Terminal Aerodrome Forecast
Issued by NWS Duluth, MN

Home | Current Version | Previous Version | Text Only | Print | Product List | Glossary On
Versions: 1 2 3 4 5 6 7 8 9 10 11 12 13 14 15 16 17 18 19 20 21 22 23 24 25 26 27 28 29 30 31 32 33 34 35 36 37 38 39 40 41 42 43 44 45 46 47
000
FTUS43 KDLH 010800 AAA
TAFDLH
TAF AMD
KDLH 010832Z 0109/0206 12011KT P6SM SCT008 OVC019
     FM011000 12010KT P6SM VCSH SCT006 OVC013
      TEMPO 0111/0115 6SM -SHRA BKN006 OVC013
     FM011500 14010KT 6SM -DZ BR OVC008
     FM011800 13010KT 3SM -RA BR OVC005
     FM020000 VRB05KT 2SM -DZ BR OVC005=

USA.gov is the U.S. government's official web portal to all federal, state and local government web resources and services.